Time;durP1;ratioP1;P1;durP2;ratioP2;P2;SDS_P1;SDS_P2;PMS_P1;PMS_P2;Temp;Humidity;BMP_temperature;BMP_pressure;BME280_temperature;BME280_humidity;BME280_pressure;Samples;Min_cycle;Max_cycle;Signal;HPM_P1;HPM_P2
2023/04/16 00:01:29;;;;;;;5.10;3.10;;;;;;;15.89;41.99;94112.84;5112982;28;20193;-47
2023/04/16 00:03:55;;;;;;;4.57;2.90;;;;;;;15.85;42.07;94113.41;5112627;28;20188;-47
2023/04/16 00:06:23;;;;;;;3.80;2.97;;;;;;;15.80;42.13;94106.19;5112805;28;20194;-48
2023/04/16 00:08:50;;;;;;;4.10;3.03;;;;;;;15.78;41.97;94108.19;5112932;28;20240;-48
2023/04/16 00:11:18;;;;;;;3.67;3.07;;;;;;;15.74;42.12;94105.16;5112461;28;20193;-47
2023/04/16 00:13:45;;;;;;;3.67;3.07;;;;;;;15.66;42.21;94100.13;5112811;28;20228;-47
2023/04/16 00:16:12;;;;;;;4.37;3.00;;;;;;;15.67;42.24;94108.66;5112749;28;20228;-47
2023/04/16 00:18:39;;;;;;;4.67;3.43;;;;;;;15.64;42.15;94103.84;5112758;28;20193;-47
2023/04/16 00:21:07;;;;;;;3.30;3.00;;;;;;;15.59;42.37;94111.31;5112795;28;20646;-47
2023/04/16 00:23:33;;;;;;;3.40;2.90;;;;;;;15.49;42.39;94091.78;5112440;28;20592;-47
2023/04/16 00:26:00;;;;;;;3.77;3.10;;;;;;;15.55;42.29;94108.31;5112636;28;20196;-47
2023/04/16 00:28:28;;;;;;;6.43;3.87;;;;;;;15.38;42.34;94081.97;5112189;28;20196;-46
2023/04/16 00:30:55;;;;;;;4.43;3.23;;;;;;;15.47;42.42;94108.44;5112509;28;20196;-48
2023/04/16 00:33:22;;;;;;;5.27;3.00;;;;;;;15.42;42.51;94103.81;5112112;28;20228;-47
2023/04/16 00:35:49;;;;;;;7.47;3.73;;;;;;;15.39;42.43;94106.75;5112647;28;20204;-47
2023/04/16 00:38:16;;;;;;;4.87;3.07;;;;;;;15.37;42.35;94103.56;5112564;28;20249;-47
2023/04/16 00:40:42;;;;;;;5.90;3.07;;;;;;;15.31;42.40;94102.50;5111903;28;20204;-47
2023/04/16 00:43:09;;;;;;;3.87;2.93;;;;;;;15.29;42.47;94104.47;5112226;28;20185;-47
2023/04/16 00:45:38;;;;;;;3.87;2.93;;;;;;;15.22;42.59;94101.00;5111808;28;20189;-47
2023/04/16 00:48:05;;;;;;;5.23;3.27;;;;;;;15.23;42.79;94101.81;5112019;28;20199;-47
2023/04/16 00:50:33;;;;;;;3.97;3.17;;;;;;;15.10;42.22;94091.34;5111757;28;20651;-47
2023/04/16 00:53:01;;;;;;;5.87;3.03;;;;;;;15.17;42.70;94098.19;5112011;28;20200;-47
2023/04/16 00:55:28;;;;;;;4.23;2.90;;;;;;;15.13;42.86;94098.72;5111665;28;20584;-47
2023/04/16 00:57:55;;;;;;;4.33;3.13;;;;;;;15.11;43.03;94096.34;5112082;28;20197;-46
2023/04/16 01:00:22;;;;;;;5.57;3.23;;;;;;;15.08;42.93;94101.84;5111628;28;20200;-47
2023/04/16 01:02:50;;;;;;;3.23;2.87;;;;;;;15.05;42.86;94095.25;5111782;28;20673;-47
2023/04/16 01:05:17;;;;;;;3.67;3.20;;;;;;;15.02;42.88;94092.25;5111034;28;20257;-47
2023/04/16 01:07:44;;;;;;;6.93;3.80;;;;;;;14.98;42.87;94096.97;5111991;28;20185;-47
2023/04/16 01:10:11;;;;;;;3.83;3.20;;;;;;;14.95;43.12;94092.19;5111150;28;20221;-47
2023/04/16 01:12:38;;;;;;;5.00;3.37;;;;;;;14.93;43.09;94091.53;5111561;28;20189;-47
2023/04/16 01:15:05;;;;;;;4.90;3.10;;;;;;;14.90;43.23;94094.50;5111608;28;20728;-47
2023/04/16 01:17:32;;;;;;;3.87;3.03;;;;;;;14.87;43.35;94092.25;5111166;28;20641;-47
2023/04/16 01:20:00;;;;;;;4.00;2.90;;;;;;;14.84;43.45;94087.47;5111920;28;20196;-46
2023/04/16 01:22:29;;;;;;;3.87;3.03;;;;;;;14.82;43.57;94081.72;5111206;28;20189;-47
2023/04/16 01:24:56;;;;;;;3.77;3.03;;;;;;;14.79;43.55;94088.00;5093070;28;20196;-46
2023/04/16 01:27:23;;;;;;;4.43;2.93;;;;;;;14.75;43.66;94098.84;5111078;28;20197;-46
2023/04/16 01:29:50;;;;;;;5.30;2.87;;;;;;;14.73;43.65;94088.72;5111473;28;20676;-48
2023/04/16 01:32:16;;;;;;;5.87;3.50;;;;;;;14.59;44.03;94073.28;5110900;28;20237;-47
2023/04/16 01:34:43;;;;;;;4.63;3.23;;;;;;;14.69;43.94;94089.25;5110986;28;20668;-47
2023/04/16 01:37:11;;;;;;;7.57;3.50;;;;;;;14.68;44.11;94092.78;5110869;28;20192;-48
2023/04/16 01:39:39;;;;;;;7.43;3.07;;;;;;;14.65;44.05;94085.44;5111245;28;20194;-48
2023/04/16 01:42:06;;;;;;;5.33;3.43;;;;;;;14.61;44.20;94074.69;5110917;28;20197;-47
2023/04/16 01:44:32;;;;;;;5.20;3.20;;;;;;;14.62;44.17;94075.50;5110960;28;20193;-48
2023/04/16 01:46:59;;;;;;;4.77;3.13;;;;;;;14.61;44.15;94073.91;5110957;28;20193;-47
2023/04/16 01:49:26;;;;;;;4.73;3.30;;;;;;;14.59;44.33;94071.50;5110956;28;20196;-46
2023/04/16 01:51:53;;;;;;;4.77;3.30;;;;;;;14.16;44.35;94003.59;5111057;28;20200;-47
2023/04/16 01:54:20;;;;;;;4.50;2.97;;;;;;;14.57;44.38;94063.16;5110284;28;20217;-47
2023/04/16 01:56:48;;;;;;;5.87;3.90;;;;;;;14.57;44.51;94063.16;5110723;28;20253;-47
2023/04/16 01:59:15;;;;;;;4.87;3.37;;;;;;;14.57;44.51;94068.31;5110676;28;20192;-47
2023/04/16 02:01:42;;;;;;;4.00;2.93;;;;;;;14.58;44.69;94063.97;5110570;28;20203;-47
2023/04/16 02:04:10;;;;;;;5.80;3.37;;;;;;;14.55;44.48;94059.97;5110386;28;20236;-49
2023/04/16 02:06:36;;;;;;;6.83;3.23;;;;;;;14.55;44.58;94055.63;5110745;28;20240;-47
2023/04/16 02:09:03;;;;;;;4.97;3.13;;;;;;;14.55;44.69;94063.34;5110306;28;20231;-47
2023/04/16 02:11:30;;;;;;;4.93;3.03;;;;;;;14.51;44.62;94062.09;5110151;28;20207;-47
2023/04/16 02:13:58;;;;;;;4.10;3.10;;;;;;;14.55;44.88;94073.66;5110143;28;20213;-47
2023/04/16 02:16:25;;;;;;;3.80;3.33;;;;;;;14.54;44.73;94071.22;5109162;28;20192;-46
2023/04/16 02:18:52;;;;;;;4.03;2.70;;;;;;;14.40;44.71;94049.63;5110214;28;20235;-46
2023/04/16 02:21:20;;;;;;;4.80;3.33;;;;;;;14.53;44.66;94057.56;5110154;28;20196;-47
2023/04/16 02:23:50;;;;;;;5.20;3.10;;;;;;;14.54;44.74;94060.94;5110531;28;20382;-47
2023/04/16 02:26:17;;;;;;;6.57;3.33;;;;;;;14.49;44.74;94058.91;5109994;28;20215;-47
2023/04/16 02:28:43;;;;;;;3.57;3.03;;;;;;;14.51;44.83;94063.88;5110232;28;20208;-46
2023/04/16 02:31:12;;;;;;;3.87;2.83;;;;;;;14.51;44.85;94059.53;5109785;28;20192;-47
2023/04/16 02:33:38;;;;;;;4.53;3.17;;;;;;;14.52;44.85;94060.31;5110039;28;20684;-48
2023/04/16 02:36:06;;;;;;;3.77;2.90;;;;;;;14.48;44.89;94059.88;5109820;28;20677;-48
2023/04/16 02:38:33;;;;;;;5.90;2.80;;;;;;;14.52;45.15;94062.91;5109886;28;20185;-47
2023/04/16 02:41:00;;;;;;;5.67;3.60;;;;;;;14.51;45.16;94056.97;5110186;28;20185;-47
2023/04/16 02:43:26;;;;;;;5.77;2.77;;;;;;;14.53;45.24;94056.78;5110062;28;20271;-47
2023/04/16 02:45:53;;;;;;;3.97;2.87;;;;;;;14.52;45.24;94055.19;5109567;28;20185;-47
2023/04/16 02:48:21;;;;;;;4.27;3.17;;;;;;;14.52;45.13;94050.84;5109809;28;20193;-46
2023/04/16 02:50:48;;;;;;;5.13;3.00;;;;;;;14.15;45.07;93991.72;5109739;28;20199;-47
2023/04/16 02:53:15;;;;;;;4.67;3.17;;;;;;;14.48;45.21;94044.44;5109861;28;20249;-47
2023/04/16 02:55:44;;;;;;;4.47;3.20;;;;;;;14.50;45.19;94046.81;5109345;28;20243;-48
2023/04/16 02:58:11;;;;;;;3.73;3.33;;;;;;;14.49;45.33;94051.19;5109796;28;20196;-47
2023/04/16 03:00:38;;;;;;;3.90;2.77;;;;;;;14.48;45.23;94048.75;5109589;28;20193;-47
2023/04/16 03:03:05;;;;;;;3.67;2.67;;;;;;;14.47;45.47;94047.16;5110176;28;20200;-47
2023/04/16 03:05:33;;;;;;;4.90;2.83;;;;;;;14.46;45.38;94048.13;5109607;28;20299;-48
2023/04/16 03:08:00;;;;;;;3.53;2.83;;;;;;;14.44;45.45;94050.09;5109407;28;20197;-46
2023/04/16 03:10:27;;;;;;;4.43;3.00;;;;;;;14.43;45.27;94051.88;5109380;28;20217;-47
2023/04/16 03:12:54;;;;;;;3.77;3.13;;;;;;;14.42;45.37;94052.03;5110304;28;20204;-48
2023/04/16 03:15:20;;;;;;;4.67;2.83;;;;;;;14.39;45.61;94049.81;5110125;28;20224;-46
2023/04/16 03:17:47;;;;;;;4.10;3.00;;;;;;;14.40;45.53;94054.00;5109215;28;20311;-47
2023/04/16 03:20:15;;;;;;;6.33;3.50;;;;;;;14.36;45.75;94052.75;5109089;28;20745;-47
2023/04/16 03:22:43;;;;;;;5.33;3.60;;;;;;;14.35;45.45;94062.25;5108824;28;20257;-46
2023/04/16 03:25:10;;;;;;;5.27;2.80;;;;;;;14.36;45.38;94058.69;5109339;28;20196;-47
2023/04/16 03:27:38;;;;;;;7.23;2.93;;;;;;;14.38;45.77;94063.63;5109617;28;20208;-46
2023/04/16 03:30:06;;;;;;;4.83;3.07;;;;;;;14.36;45.55;94063.81;5113809;28;20599;-48
2023/04/16 03:32:33;;;;;;;4.67;3.00;;;;;;;14.36;45.68;94060.47;5112903;28;20666;-47
2023/04/16 03:35:00;;;;;;;3.73;3.00;;;;;;;14.31;45.74;94054.06;5113564;28;20709;-47
2023/04/16 03:37:27;;;;;;;6.50;2.93;;;;;;;14.37;45.77;94069.75;5113401;28;20590;-47
2023/04/16 03:39:55;;;;;;;6.13;3.43;;;;;;;14.37;45.57;94072.34;5113841;28;20193;-46
2023/04/16 03:42:22;;;;;;;4.50;3.30;;;;;;;14.38;45.78;94068.78;5113293;28;20680;-47
2023/04/16 03:44:48;;;;;;;6.80;3.37;;;;;;;14.36;45.85;94068.19;5113387;28;20193;-46
2023/04/16 03:47:15;;;;;;;5.17;2.90;;;;;;;14.37;45.81;94080.06;5113079;28;20196;-46
2023/04/16 03:49:42;;;;;;;4.07;3.10;;;;;;;14.37;45.84;94080.06;5113330;28;20209;-49
2023/04/16 03:52:10;;;;;;;4.77;3.10;;;;;;;14.36;45.87;94075.91;5113447;28;20200;-47
2023/04/16 03:54:36;;;;;;;6.10;3.60;;;;;;;14.36;45.78;94071.53;5113020;28;20224;-47
2023/04/16 03:57:05;;;;;;;5.13;3.00;;;;;;;14.23;45.78;94053.34;5113073;28;20207;-47
2023/04/16 03:59:31;;;;;;;6.23;3.70;;;;;;;14.37;45.71;94075.72;5113031;28;20200;-46
2023/04/16 04:01:58;;;;;;;8.37;3.77;;;;;;;14.36;45.89;94074.13;5113228;28;20242;-47
2023/04/16 04:04:25;;;;;;;5.27;3.40;;;;;;;14.38;45.93;94074.75;5112647;28;20674;-47
2023/04/16 04:06:52;;;;;;;5.47;2.90;;;;;;;14.41;45.89;94076.16;5112995;28;20242;-46
2023/04/16 04:09:18;;;;;;;4.07;3.07;;;;;;;14.44;45.87;94068.09;5112609;28;20629;-48
2023/04/16 04:11:45;;;;;;;4.30;3.20;;;;;;;14.46;45.81;94084.16;5112717;28;20216;-46
2023/04/16 04:14:13;;;;;;;4.83;3.47;;;;;;;14.51;45.85;94081.91;5113119;28;20195;-48
2023/04/16 04:16:41;;;;;;;5.30;3.40;;;;;;;14.55;45.81;94088.28;5112468;28;20665;-47
2023/04/16 04:19:07;;;;;;;6.73;3.40;;;;;;;14.59;45.84;94081.00;5112568;28;20200;-46
2023/04/16 04:21:34;;;;;;;4.43;3.30;;;;;;;14.63;45.75;94084.81;5112687;28;20185;-47
2023/04/16 04:24:01;;;;;;;7.30;3.47;;;;;;;14.52;45.52;94074.00;5112835;28;20742;-48
2023/04/16 04:26:28;;;;;;;6.60;3.73;;;;;;;14.69;45.67;94094.41;5111958;28;20192;-47
2023/04/16 04:28:54;;;;;;;4.97;3.30;;;;;;;14.52;45.84;94068.06;5112393;28;20281;-47
2023/04/16 04:31:23;;;;;;;5.97;3.50;;;;;;;14.72;45.74;94096.59;5112118;28;20201;-47
2023/04/16 04:33:49;;;;;;;6.70;3.97;;;;;;;14.73;45.77;94096.44;5112399;28;20189;-47
2023/04/16 04:36:16;;;;;;;7.17;3.43;;;;;;;14.74;45.75;94098.03;5112177;28;20225;-47
2023/04/16 04:38:43;;;;;;;4.43;3.10;;;;;;;14.78;45.79;94098.50;5112038;28;20265;-47
2023/04/16 04:41:09;;;;;;;4.90;3.70;;;;;;;14.80;45.75;94101.66;5111209;28;20271;-48
2023/04/16 04:43:36;;;;;;;7.83;3.37;;;;;;;14.82;46.00;94098.94;5112073;28;20200;-47
2023/04/16 04:46:03;;;;;;;3.87;3.07;;;;;;;14.85;45.68;94101.94;5112456;28;20200;-46
2023/04/16 04:48:31;;;;;;;5.27;3.40;;;;;;;14.89;45.66;94110.91;5111849;28;20203;-47
2023/04/16 04:50:58;;;;;;;5.33;3.30;;;;;;;14.90;45.77;94104.00;5112214;28;20197;-50
2023/04/16 04:53:25;;;;;;;4.03;3.20;;;;;;;14.86;45.79;94093.25;5111896;28;20200;-47
2023/04/16 04:55:51;;;;;;;4.60;3.40;;;;;;;14.92;45.64;94099.44;5111760;28;20217;-47
2023/04/16 04:58:18;;;;;;;5.73;3.80;;;;;;;14.98;45.52;94107.28;5111648;28;20666;-47
2023/04/16 05:00:45;;;;;;;9.00;3.77;;;;;;;14.95;45.67;94101.69;5112192;28;20189;-47
2023/04/16 05:03:12;;;;;;;4.43;3.33;;;;;;;15.00;45.86;94102.72;5112091;28;20189;-47
2023/04/16 05:05:40;;;;;;;6.03;3.77;;;;;;;15.03;45.67;94109.31;5111938;28;20189;-47
2023/04/16 05:08:07;;;;;;;5.03;3.87;;;;;;;15.08;45.60;94113.91;5111749;28;20253;-47
2023/04/16 05:10:34;;;;;;;4.93;3.67;;;;;;;14.67;45.74;94050.03;5111611;28;20530;-47
2023/04/16 05:13:01;;;;;;;5.30;3.73;;;;;;;15.15;45.59;94112.22;5111870;28;20188;-48
2023/04/16 05:15:28;;;;;;;5.17;4.03;;;;;;;15.19;45.66;94113.44;5111952;28;20225;-45
2023/04/16 05:17:55;;;;;;;7.77;3.80;;;;;;;15.24;45.33;94109.38;5111484;28;20275;-47
2023/04/16 05:20:22;;;;;;;4.83;3.33;;;;;;;15.29;45.53;94114.78;5111625;28;20673;-48
2023/04/16 05:22:51;;;;;;;4.47;3.80;;;;;;;15.34;45.35;94114.22;5111575;28;20185;-47
2023/04/16 05:25:18;;;;;;;6.10;3.93;;;;;;;15.38;45.22;94107.75;5111093;28;20192;-47
2023/04/16 05:27:44;;;;;;;9.17;4.00;;;;;;;15.47;45.09;94111.81;5111385;28;20188;-47
2023/04/16 05:30:12;;;;;;;6.57;4.10;;;;;;;15.56;44.81;94113.28;5111474;28;20208;-48
2023/04/16 05:32:40;;;;;;;9.17;4.10;;;;;;;15.65;44.98;94114.00;5111636;28;20242;-46
2023/04/16 05:35:08;;;;;;;6.60;3.83;;;;;;;15.73;44.94;94106.16;5111321;28;20716;-46
2023/04/16 05:37:35;;;;;;;4.83;3.63;;;;;;;15.87;44.90;94107.06;5111149;28;20235;-46
2023/04/16 05:40:03;;;;;;;8.13;3.90;;;;;;;15.99;44.75;94105.59;5110966;28;20253;-46
2023/04/16 05:42:30;;;;;;;7.97;3.63;;;;;;;15.91;44.81;94066.25;5110960;28;20196;-48
2023/04/16 05:44:57;;;;;;;5.03;3.53;;;;;;;16.18;44.40;94101.56;5111164;28;20266;-53
2023/04/16 05:47:24;;;;;;;6.00;3.97;;;;;;;16.27;44.27;94115.94;5111207;28;20246;-47
2023/04/16 05:49:50;;;;;;;6.73;4.43;;;;;;;16.34;44.14;94110.03;5110692;28;20638;-47
2023/04/16 05:52:17;;;;;;;6.97;4.27;;;;;;;16.31;44.10;94087.97;5110904;28;20257;-48
2023/04/16 05:54:44;;;;;;;5.77;3.83;;;;;;;16.07;44.18;94045.34;5110538;28;20196;-47
2023/04/16 05:57:13;;;;;;;4.73;4.00;;;;;;;16.53;44.18;94112.75;5111035;28;20270;-47
2023/04/16 05:59:40;;;;;;;4.97;4.00;;;;;;;16.53;43.78;94097.25;5110924;28;20193;-48
2023/04/16 06:02:07;;;;;;;5.00;3.80;;;;;;;16.68;44.08;94111.88;5111050;28;20222;-48
2023/04/16 06:04:34;;;;;;;5.20;4.10;;;;;;;16.75;44.03;94108.38;5111025;28;20207;-49
2023/04/16 06:07:01;;;;;;;6.73;4.67;;;;;;;16.82;43.81;94105.03;5110500;28;20189;-47
2023/04/16 06:09:28;;;;;;;7.13;4.07;;;;;;;16.92;43.56;94108.06;5110411;28;20225;-47
2023/04/16 06:11:55;;;;;;;8.40;4.80;;;;;;;17.02;43.69;94106.72;5110461;28;20208;-47
2023/04/16 06:14:23;;;;;;;5.27;4.47;;;;;;;17.15;43.27;94103.41;5110490;28;20321;-47
2023/04/16 06:16:50;;;;;;;8.60;4.30;;;;;;;17.30;43.28;94106.63;5110351;28;20228;-47
2023/04/16 06:19:17;;;;;;;8.20;4.63;;;;;;;17.48;42.98;94113.06;5110637;28;20189;-48
2023/04/16 06:21:43;;;;;;;6.20;4.27;;;;;;;17.68;42.78;94113.13;5110334;28;20211;-47
2023/04/16 06:24:10;;;;;;;8.90;4.40;;;;;;;17.86;42.58;94107.41;5110378;28;20711;-47
2023/04/16 06:26:37;;;;;;;9.37;4.77;;;;;;;18.09;42.35;94109.63;5109783;28;20193;-48
2023/04/16 06:29:04;;;;;;;10.50;5.33;;;;;;;18.19;42.14;94097.91;5110676;28;20215;-48
2023/04/16 06:31:32;;;;;;;8.13;4.27;;;;;;;18.43;42.25;94104.25;5110003;28;20189;-47
2023/04/16 06:33:59;;;;;;;7.40;4.53;;;;;;;18.56;41.89;94091.28;5110281;28;20650;-46
2023/04/16 06:36:27;;;;;;;7.57;4.43;;;;;;;18.74;41.74;94098.50;5110201;28;20225;-47
2023/04/16 06:38:54;;;;;;;7.10;4.93;;;;;;;18.94;41.60;94097.63;5110014;28;20185;-49
2023/04/16 06:41:24;;;;;;;8.53;5.00;;;;;;;19.14;41.46;94100.97;5110351;28;20215;-47
2023/04/16 06:43:51;;;;;;;9.37;4.83;;;;;;;19.24;41.13;94087.56;5110170;28;20196;-47
2023/04/16 06:46:18;;;;;;;7.30;4.50;;;;;;;19.56;41.04;94109.19;5110246;28;20192;-47
2023/04/16 06:48:46;;;;;;;9.90;5.43;;;;;;;19.82;40.84;94104.84;5110015;28;20200;-47
2023/04/16 06:51:13;;;;;;;7.63;4.87;;;;;;;20.07;40.61;94104.91;5110063;28;20250;-47
2023/04/16 06:53:41;;;;;;;10.47;5.60;;;;;;;20.36;40.55;94108.69;5109549;28;20200;-48
2023/04/16 06:56:08;;;;;;;6.53;4.20;;;;;;;20.68;40.29;94101.63;5110139;28;20712;-48
2023/04/16 06:58:35;;;;;;;5.97;4.53;;;;;;;20.93;40.13;94101.59;5109869;28;20657;-47
2023/04/16 07:01:02;;;;;;;9.10;4.83;;;;;;;21.14;39.82;94100.38;5110075;28;20189;-47
2023/04/16 07:03:29;;;;;;;6.37;4.70;;;;;;;21.28;39.73;94092.19;5109076;28;20691;-46
2023/04/16 07:05:57;;;;;;;7.57;4.63;;;;;;;21.41;39.59;94095.69;5109514;28;20192;-49
2023/04/16 07:08:24;;;;;;;9.57;4.90;;;;;;;21.54;39.53;94105.91;5109247;28;20224;-48
2023/04/16 07:10:52;;;;;;;8.60;4.93;;;;;;;21.64;39.35;94108.03;5109609;28;20203;-48
2023/04/16 07:13:19;;;;;;;5.43;4.55;;;;;;;21.74;39.25;94105.69;5109994;28;20666;-48
2023/04/16 07:15:46;;;;;;;9.70;4.50;;;;;;;21.82;39.16;94102.75;5109989;28;20717;-48
2023/04/16 07:18:13;;;;;;;10.50;4.97;;;;;;;21.98;38.96;94109.94;5109750;28;20661;-49
2023/04/16 07:20:40;;;;;;;7.28;5.00;;;;;;;22.14;38.81;94107.75;5109269;28;20199;-48
2023/04/16 07:23:08;;;;;;;7.32;4.00;;;;;;;22.29;38.58;94098.50;5109627;28;20253;-48
2023/04/16 07:25:35;;;;;;;7.35;4.55;;;;;;;22.08;38.41;94049.50;5109275;28;20641;-49
2023/04/16 07:28:03;;;;;;;6.20;3.88;;;;;;;22.63;38.38;94108.38;5109415;28;20199;-49
2023/04/16 07:30:33;;;;;;;5.43;3.72;;;;;;;22.76;38.23;94105.56;5109268;28;20216;-48
2023/04/16 07:32:59;;;;;;;7.07;4.40;;;;;;;22.90;38.17;94111.34;5109600;28;20192;-47
2023/04/16 07:35:26;;;;;;;5.38;4.22;;;;;;;23.02;37.92;94106.94;5109014;28;20220;-52
2023/04/16 07:37:53;;;;;;;8.80;4.72;;;;;;;23.20;37.82;94095.56;5109450;28;20668;-50
2023/04/16 07:40:21;;;;;;;6.22;4.03;;;;;;;23.41;37.75;94097.53;5109511;28;20627;-47
2023/04/16 07:42:48;;;;;;;6.53;4.35;;;;;;;23.67;37.05;94098.06;5109451;28;20193;-48
2023/04/16 07:45:15;;;;;;;6.68;4.18;;;;;;;23.93;37.17;94109.75;5109284;28;20196;-48
2023/04/16 07:47:42;;;;;;;7.28;4.32;;;;;;;24.17;37.00;94110.41;5109479;28;20193;-48
2023/04/16 07:50:10;;;;;;;10.15;4.25;;;;;;;24.41;36.79;94105.88;5109394;28;20189;-47
2023/04/16 07:52:40;;;;;;;6.05;3.97;;;;;;;24.60;36.43;94104.59;5109316;28;20185;-48
2023/04/16 07:55:07;;;;;;;6.32;4.38;;;;;;;24.78;36.39;94101.72;5109269;28;20193;-48
2023/04/16 07:57:35;;;;;;;6.00;4.38;;;;;;;24.96;36.22;94100.66;5108868;28;20216;-49
2023/04/16 08:00:03;;;;;;;7.00;3.55;;;;;;;25.11;36.11;94094.84;5109316;28;20192;-48
2023/04/16 08:02:30;;;;;;;7.65;4.45;;;;;;;25.34;35.92;94103.50;5109092;28;20189;-49
2023/04/16 08:04:57;;;;;;;5.65;3.58;;;;;;;25.64;35.47;94103.06;5108989;28;20196;-49
2023/04/16 08:07:24;;;;;;;4.13;3.72;;;;;;;25.97;35.35;94107.38;5109385;28;20664;-48
2023/04/16 08:09:52;;;;;;;5.13;3.80;;;;;;;26.37;35.39;94103.53;5109141;28;20609;-51
2023/04/16 08:12:19;;;;;;;6.75;3.83;;;;;;;26.81;34.94;94101.50;5109097;28;20200;-50
2023/04/16 08:14:48;;;;;;;6.45;3.55;;;;;;;27.16;34.97;94098.34;5111179;28;20199;-49
2023/04/16 08:17:15;;;;;;;7.72;3.83;;;;;;;27.00;34.74;94015.28;5112888;28;20216;-48
2023/04/16 08:19:42;;;;;;;6.97;3.47;;;;;;;27.89;34.16;94103.63;5112942;28;20193;-49
2023/04/16 08:22:09;;;;;;;4.22;3.10;;;;;;;28.26;33.93;94106.00;5112871;28;20246;-47
2023/04/16 08:24:36;;;;;;;4.47;3.45;;;;;;;28.48;34.13;94097.91;5113181;28;20206;-48
2023/04/16 08:27:03;;;;;;;4.45;3.28;;;;;;;28.50;34.06;94098.44;5112795;28;20197;-50
2023/04/16 08:29:30;;;;;;;3.35;3.05;;;;;;;28.42;34.12;94083.19;5112876;28;20232;-48
2023/04/16 08:31:58;;;;;;;3.90;3.20;;;;;;;28.32;33.76;94085.75;5112895;28;20192;-48
2023/04/16 08:34:25;;;;;;;8.18;3.83;;;;;;;28.29;34.20;94094.19;5112732;28;20200;-48
2023/04/16 08:36:52;;;;;;;3.67;3.25;;;;;;;28.20;34.11;94087.88;5112922;28;20217;-51
2023/04/16 08:39:19;;;;;;;7.35;3.65;;;;;;;28.10;33.83;94088.63;5113112;28;20192;-48
2023/04/16 08:41:47;;;;;;;4.13;3.10;;;;;;;28.02;34.10;94081.25;5112633;28;20223;-48
2023/04/16 08:44:20;;;;;;;7.10;3.40;;;;;;;28.01;33.60;94083.13;5112243;28;20185;-49
2023/04/16 08:46:47;;;;;;;5.80;3.47;;;;;;;28.10;33.67;94075.50;5112511;28;20891;-49
2023/04/16 08:49:18;;;;;;;6.88;3.40;;;;;;;28.22;33.53;94075.25;5112527;28;20229;-48
2023/04/16 08:51:51;;;;;;;5.45;3.10;;;;;;;28.37;33.22;94077.91;5113082;28;20254;-49
2023/04/16 08:54:26;;;;;;;3.28;2.95;;;;;;;28.53;32.88;94077.91;5112389;28;20245;-46
2023/04/16 08:56:53;;;;;;;4.05;2.55;;;;;;;28.63;32.90;94078.69;5111906;28;20231;-49
2023/04/16 08:59:21;;;;;;;4.63;2.58;;;;;;;28.54;32.57;94061.06;5111760;28;20188;-49
2023/04/16 09:01:48;;;;;;;3.25;2.90;;;;;;;28.53;33.02;94070.78;5111947;28;20201;-48
2023/04/16 09:04:17;;;;;;;5.22;2.80;;;;;;;28.38;32.96;94066.34;5112160;28;20189;-47
2023/04/16 09:06:45;;;;;;;4.13;3.05;;;;;;;28.19;32.81;94063.41;5112191;28;20200;-49
2023/04/16 09:09:12;;;;;;;3.53;3.03;;;;;;;27.97;32.93;94060.22;5111591;28;20212;-47
2023/04/16 09:11:39;;;;;;;4.82;2.88;;;;;;;27.74;33.11;94058.91;5111815;28;20710;-47
2023/04/16 09:14:10;;;;;;;3.92;2.85;;;;;;;27.54;32.69;94064.06;5111476;28;20189;-48
2023/04/16 09:16:38;;;;;;;6.22;2.92;;;;;;;27.33;33.17;94063.19;5112143;28;20232;-47
2023/04/16 09:19:05;;;;;;;6.50;2.78;;;;;;;27.17;33.13;94067.63;5111605;28;20204;-48
2023/04/16 09:21:33;;;;;;;2.75;2.47;;;;;;;26.95;33.07;94050.16;5112173;28;20196;-47
2023/04/16 09:24:00;;;;;;;3.25;2.72;;;;;;;26.93;33.45;94059.31;5113631;28;20266;-48
2023/04/16 09:26:27;;;;;;;4.57;2.47;;;;;;;26.86;33.09;94061.41;5111036;28;20869;-49
2023/04/16 09:28:55;;;;;;;5.82;2.92;;;;;;;26.75;33.34;94058.72;5111317;28;20188;-48
2023/04/16 09:31:22;;;;;;;4.47;2.78;;;;;;;26.65;33.44;94057.88;5111641;28;20189;-48
2023/04/16 09:34:02;;;;;;;3.42;2.67;;;;;;;26.56;33.15;94062.81;5111489;28;20189;-48
2023/04/16 09:36:30;;;;;;;6.30;2.83;;;;;;;26.45;33.49;94058.53;5111419;28;20212;-48
2023/04/16 09:38:58;;;;;;;3.85;2.65;;;;;;;26.49;33.08;94063.00;5111096;28;20253;-48
2023/04/16 09:41:27;;;;;;;3.50;2.53;;;;;;;26.48;33.22;94052.78;5111124;28;20661;-47
2023/04/16 09:43:58;;;;;;;5.57;3.17;;;;;;;26.48;33.17;94056.19;5111416;28;20182;-47
2023/04/16 09:46:29;;;;;;;4.40;2.70;;;;;;;26.54;33.08;94054.38;5111323;28;20249;-47
2023/04/16 09:48:56;;;;;;;6.10;2.42;;;;;;;26.59;33.06;94051.00;5111080;28;20691;-47
2023/04/16 09:51:23;;;;;;;4.55;2.83;;;;;;;26.68;33.09;94047.63;5111270;28;20262;-48
2023/04/16 09:53:53;;;;;;;3.13;2.78;;;;;;;26.72;33.04;94045.31;5110829;28;20635;-48
2023/04/16 09:56:23;;;;;;;3.65;2.55;;;;;;;26.68;32.91;94045.00;5110555;28;20260;-48
2023/04/16 09:58:50;;;;;;;6.95;2.70;;;;;;;26.60;33.01;94042.91;5110668;28;20246;-49
2023/04/16 10:01:18;;;;;;;3.97;2.67;;;;;;;26.50;33.06;94037.56;5110576;28;20184;-49
2023/04/16 10:03:49;;;;;;;3.83;2.63;;;;;;;26.37;33.13;94036.13;5110644;28;20530;-47
2023/04/16 10:06:18;;;;;;;4.40;2.70;;;;;;;26.19;33.19;94024.22;5110558;28;20200;-49
2023/04/16 10:08:47;;;;;;;3.80;2.25;;;;;;;26.15;33.15;94031.00;5110558;28;20232;-48
2023/04/16 10:11:14;;;;;;;5.45;2.30;;;;;;;26.07;33.12;94028.84;5110536;28;20193;-48
2023/04/16 10:13:42;;;;;;;4.75;2.70;;;;;;;26.00;33.20;94029.06;5110361;28;20204;-48
2023/04/16 10:16:09;;;;;;;3.45;2.20;;;;;;;25.93;33.66;94027.69;5110143;28;20193;-48
2023/04/16 10:18:38;;;;;;;4.75;2.67;;;;;;;25.87;33.24;94026.84;5110568;28;20225;-47
2023/04/16 10:21:05;;;;;;;2.97;2.53;;;;;;;25.72;33.36;94003.09;5110214;28;20193;-48
2023/04/16 10:23:32;;;;;;;3.30;2.50;;;;;;;25.80;33.22;94026.25;5110315;28;20192;-48
2023/04/16 10:26:01;;;;;;;4.32;2.40;;;;;;;25.78;33.36;94020.50;5110138;28;20189;-48
2023/04/16 10:28:28;;;;;;;4.10;2.65;;;;;;;25.74;33.56;94019.38;5110395;28;20189;-47
2023/04/16 10:30:57;;;;;;;4.70;2.22;;;;;;;25.74;33.56;94014.13;5109958;28;20207;-48
2023/04/16 10:33:27;;;;;;;4.90;2.72;;;;;;;25.73;33.58;94015.97;5110283;28;20278;-48
2023/04/16 10:36:07;;;;;;;3.40;2.67;;;;;;;25.73;33.68;94008.09;5110091;28;20662;-48
2023/04/16 10:38:35;;;;;;;3.17;2.03;;;;;;;25.76;33.34;94004.19;5109121;28;20201;-47
2023/04/16 10:41:03;;;;;;;2.30;2.10;;;;;;;25.80;33.40;94001.91;5109857;28;20268;-48
2023/04/16 10:43:31;;;;;;;4.45;2.53;;;;;;;25.80;33.32;93991.41;5110153;28;20200;-48
2023/04/16 10:46:18;;;;;;;2.50;2.30;;;;;;;25.83;33.15;93996.94;5109800;28;20665;-48
2023/04/16 10:48:45;;;;;;;3.28;2.60;;;;;;;25.33;33.36;93923.94;5109910;28;20188;-47
2023/04/16 10:51:24;;;;;;;2.25;2.03;;;;;;;25.87;33.45;94000.66;5109998;28;21004;-48
2023/04/16 10:53:51;;;;;;;3.75;2.08;;;;;;;25.77;33.34;93979.59;5109973;28;20193;-47
2023/04/16 10:56:23;;;;;;;2.72;2.15;;;;;;;25.65;33.31;93956.19;5109641;28;20266;-48
2023/04/16 10:58:50;;;;;;;3.72;2.40;;;;;;;25.55;33.26;93942.97;5110048;28;20204;-48
2023/04/16 11:01:18;;;;;;;2.65;2.20;;;;;;;25.87;33.04;93995.41;5109106;28;20653;-48
2023/04/16 11:03:47;;;;;;;3.35;2.67;;;;;;;25.88;33.12;93998.81;5110165;28;20216;-48
2023/04/16 11:06:16;;;;;;;3.20;2.25;;;;;;;25.86;33.44;93996.44;5109786;28;20189;-47
2023/04/16 11:08:44;;;;;;;4.07;2.22;;;;;;;25.86;33.25;93983.34;5109486;28;20217;-49
2023/04/16 11:11:11;;;;;;;2.17;1.95;;;;;;;25.92;32.89;93990.22;5109548;28;20199;-49
2023/04/16 11:13:38;;;;;;;2.72;2.15;;;;;;;25.99;33.00;93974.25;5109567;28;20261;-47
2023/04/16 11:16:06;;;;;;;3.75;2.00;;;;;;;26.02;32.79;93981.63;5109202;28;20217;-48
2023/04/16 11:18:35;;;;;;;3.58;1.92;;;;;;;26.02;33.05;93981.63;5109568;28;20227;-49
2023/04/16 11:21:02;;;;;;;2.35;2.15;;;;;;;25.98;33.09;93970.06;5109212;28;20685;-49
2023/04/16 11:23:29;;;;;;;4.30;2.35;;;;;;;25.86;33.18;93954.50;5109602;28;20188;-47
2023/04/16 11:25:57;;;;;;;2.85;2.35;;;;;;;25.89;33.11;93972.38;5109569;28;20189;-48
2023/04/16 11:28:34;;;;;;;2.67;2.00;;;;;;;25.70;32.99;93950.19;5109212;28;20200;-48
2023/04/16 11:31:11;;;;;;;2.65;2.17;;;;;;;25.06;33.20;93850.66;5109724;28;20303;-47
2023/04/16 11:33:39;;;;;;;2.53;1.92;;;;;;;25.79;33.14;93968.88;5109496;28;20301;-48
2023/04/16 11:36:06;;;;;;;2.72;1.98;;;;;;;25.76;33.43;93954.41;5109095;28;20196;-48